NCAR-RAP Real-Time Weather Data

Output produced by METARs form (06 May 2021  15:55 UTC)
found at http://weather.rap.ucar.edu/surface/
 
KMTO 061453Z AUTO 18007KT 10SM FEW070 OVC090 13/08 A3009 RMK AO2 RAB01E12 SLP190 P0000 60000 T01330078 58008
KMTO 061353Z AUTO 17007KT 10SM OVC070 12/07 A3011 RMK AO2 SLP197 T01220072
KMTO 061253Z AUTO 17009KT 10SM SCT090 11/06 A3011 RMK AO2 SLP197 T01110061
KMTO 061153Z AUTO 16007KT 10SM FEW120 10/06 A3012 RMK AO2 SLP198 T01000056 10117 20067 55001
KMTO 061053Z AUTO 16005KT 10SM FEW120 09/05 A3011 RMK AO2 SLP197 T00940050
KMTO 060953Z AUTO 15006KT 10SM BKN110 09/05 A3011 RMK AO2 SLP196 T00890050
KMTO 060853Z AUTO 14005KT 10SM CLR 09/06 A3012 RMK AO2 SLP199 T00890061 55002
KMTO 060753Z AUTO 08007KT 10SM CLR 08/06 A3011 RMK AO2 SLP198 T00780061
KMTO 060653Z AUTO 22005KT 10SM CLR 12/05 A3012 RMK AO2 SLP200 T01170050
KMTO 060553Z AUTO 17003KT 10SM CLR 08/07 A3013 RMK AO2 SLP201 T00830067 10161 20072 401720050 58007
KMTO 060453Z AUTO 25004KT 10SM CLR 12/05 A3014 RMK AO2 SLP206 T01170050
KMTO 060353Z AUTO 23004KT 10SM CLR 12/04 A3015 RMK AO2 SLP211 T01170044
KMTO 060253Z AUTO 25005KT 10SM CLR 12/04 A3015 RMK AO2 SLP209 T01220044 51009
KMTO 060153Z AUTO 24004KT 10SM CLR 12/06 A3014 RMK AO2 SLP205 T01220056